sensor_id;sensor_type;location;lat;lon;timestamp;pressure;altitude;pressure_sealevel;temperature;humidity
6389;BME280;3227;42.654;23.360;2023-02-20T00:00:44;94719.25;;;12.11;56.75
6389;BME280;3227;42.654;23.360;2023-02-20T00:03:13;94727.00;;;12.08;57.31
6389;BME280;3227;42.654;23.360;2023-02-20T00:05:40;94725.28;;;12.04;57.73
6389;BME280;3227;42.654;23.360;2023-02-20T00:08:12;94720.19;;;11.91;58.11
6389;BME280;3227;42.654;23.360;2023-02-20T00:10:39;94733.84;;;12.06;57.73
6389;BME280;3227;42.654;23.360;2023-02-20T00:13:08;94676.56;;;11.68;57.74
6389;BME280;3227;42.654;23.360;2023-02-20T00:15:34;94731.31;;;11.90;58.09
6389;BME280;3227;42.654;23.360;2023-02-20T00:18:01;94727.03;;;11.89;58.92
6389;BME280;3227;42.654;23.360;2023-02-20T00:20:28;94722.75;;;11.80;59.13
6389;BME280;3227;42.654;23.360;2023-02-20T00:22:57;94727.03;;;11.79;59.61
6389;BME280;3227;42.654;23.360;2023-02-20T00:25:24;94727.91;;;11.75;60.16
6389;BME280;3227;42.654;23.360;2023-02-20T00:27:51;94729.59;;;11.79;59.94
6389;BME280;3227;42.654;23.360;2023-02-20T00:30:21;94706.50;;;11.63;60.53
6389;BME280;3227;42.654;23.360;2023-02-20T00:32:50;94733.88;;;11.71;60.39
6389;BME280;3227;42.654;23.360;2023-02-20T00:35:18;94721.06;;;11.79;60.91
6389;BME280;3227;42.654;23.360;2023-02-20T00:37:46;94714.22;;;11.82;60.30
6389;BME280;3227;42.654;23.360;2023-02-20T00:40:14;94721.91;;;11.79;60.97
6389;BME280;3227;42.654;23.360;2023-02-20T00:42:41;94721.03;;;11.88;60.02
6389;BME280;3227;42.654;23.360;2023-02-20T00:45:09;94661.19;;;11.48;60.49
6389;BME280;3227;42.654;23.360;2023-02-20T00:47:37;94709.94;;;11.77;60.94
6389;BME280;3227;42.654;23.360;2023-02-20T00:50:07;94724.47;;;11.87;60.83
6389;BME280;3227;42.654;23.360;2023-02-20T00:52:34;94709.06;;;11.90;59.69
6389;BME280;3227;42.654;23.360;2023-02-20T00:55:04;94722.69;;;12.03;60.10
6389;BME280;3227;42.654;23.360;2023-02-20T00:57:31;94738.13;;;11.95;59.93
6389;BME280;3227;42.654;23.360;2023-02-20T00:59:57;94732.16;;;11.89;60.07
6389;BME280;3227;42.654;23.360;2023-02-20T01:02:24;94731.31;;;11.73;61.25
6389;BME280;3227;42.654;23.360;2023-02-20T01:04:53;94738.13;;;11.71;61.41
6389;BME280;3227;42.654;23.360;2023-02-20T01:07:21;94746.69;;;11.62;61.35
6389;BME280;3227;42.654;23.360;2023-02-20T01:09:47;94768.09;;;11.55;61.84
6389;BME280;3227;42.654;23.360;2023-02-20T01:12:14;94753.56;;;11.47;62.19
6389;BME280;3227;42.654;23.360;2023-02-20T01:14:41;94756.16;;;11.53;62.05
6389;BME280;3227;42.654;23.360;2023-02-20T01:17:08;94766.38;;;11.65;61.90
6389;BME280;3227;42.654;23.360;2023-02-20T01:19:35;94768.09;;;11.58;62.64
6389;BME280;3227;42.654;23.360;2023-02-20T01:22:03;94778.38;;;11.57;62.49
6389;BME280;3227;42.654;23.360;2023-02-20T01:24:33;94775.78;;;11.54;62.87
6389;BME280;3227;42.654;23.360;2023-02-20T01:26:59;94776.66;;;11.48;62.67
6389;BME280;3227;42.654;23.360;2023-02-20T01:29:26;94792.06;;;11.60;62.22
6389;BME280;3227;42.654;23.360;2023-02-20T01:31:53;94792.94;;;11.68;61.46
6389;BME280;3227;42.654;23.360;2023-02-20T01:34:20;94742.47;;;11.52;61.83
6389;BME280;3227;42.654;23.360;2023-02-20T01:36:47;94779.25;;;11.80;61.46
6389;BME280;3227;42.654;23.360;2023-02-20T01:39:17;94762.09;;;11.64;62.79
6389;BME280;3227;42.654;23.360;2023-02-20T01:41:46;94779.22;;;11.68;61.83
6389;BME280;3227;42.654;23.360;2023-02-20T01:44:18;94778.38;;;11.81;61.71
6389;BME280;3227;42.654;23.360;2023-02-20T01:46:50;94787.81;;;11.82;62.36
6389;BME280;3227;42.654;23.360;2023-02-20T01:49:30;94792.09;;;11.75;62.38
6389;BME280;3227;42.654;23.360;2023-02-20T01:52:04;94797.19;;;11.65;63.86
6389;BME280;3227;42.654;23.360;2023-02-20T01:54:34;94800.63;;;11.59;64.58
6389;BME280;3227;42.654;23.360;2023-02-20T01:57:03;94780.09;;;11.67;63.69
6389;BME280;3227;42.654;23.360;2023-02-20T01:59:34;94801.50;;;11.75;63.52
6389;BME280;3227;42.654;23.360;2023-02-20T02:02:03;94799.75;;;11.65;64.32
6389;BME280;3227;42.654;23.360;2023-02-20T02:04:32;94790.34;;;11.44;64.83
6389;BME280;3227;42.654;23.360;2023-02-20T02:07:00;94804.00;;;11.32;66.25
6389;BME280;3227;42.654;23.360;2023-02-20T02:09:36;94806.59;;;11.28;66.66
6389;BME280;3227;42.654;23.360;2023-02-20T02:12:05;94733.88;;;10.94;65.97
6389;BME280;3227;42.654;23.360;2023-02-20T02:14:31;94794.59;;;11.19;66.62
6389;BME280;3227;42.654;23.360;2023-02-20T02:17:10;94800.56;;;11.11;66.88
6389;BME280;3227;42.654;23.360;2023-02-20T02:20:00;94807.38;;;10.95;67.15
6389;BME280;3227;42.654;23.360;2023-02-20T02:23:08;94797.91;;;10.80;67.34
6389;BME280;3227;42.654;23.360;2023-02-20T02:25:46;94773.06;;;10.53;67.52
6389;BME280;3227;42.654;23.360;2023-02-20T02:28:45;94797.00;;;10.67;67.03
6389;BME280;3227;42.654;23.360;2023-02-20T02:31:30;94813.25;;;10.66;66.63
6389;BME280;3227;42.654;23.360;2023-02-20T02:34:25;94824.34;;;10.68;66.36
6389;BME280;3227;42.654;23.360;2023-02-20T02:37:06;94821.81;;;10.76;65.92
6389;BME280;3227;42.654;23.360;2023-02-20T02:39:43;94824.41;;;10.78;65.71
6389;BME280;3227;42.654;23.360;2023-02-20T02:42:17;94810.69;;;10.66;65.29
6389;BME280;3227;42.654;23.360;2023-02-20T02:44:51;94731.00;;;10.15;65.49
6389;BME280;3227;42.654;23.360;2023-02-20T02:47:43;94809.81;;;10.61;65.74
6389;BME280;3227;42.654;23.360;2023-02-20T02:50:16;94812.34;;;10.57;65.82
6389;BME280;3227;42.654;23.360;2023-02-20T02:52:46;94767.81;;;10.26;65.66
6389;BME280;3227;42.654;23.360;2023-02-20T02:55:17;94816.63;;;10.62;65.22
6389;BME280;3227;42.654;23.360;2023-02-20T02:57:44;94810.66;;;10.60;65.50
6389;BME280;3227;42.654;23.360;2023-02-20T03:00:14;94819.13;;;10.47;65.66
6389;BME280;3227;42.654;23.360;2023-02-20T03:02:48;94817.41;;;10.45;65.63
6389;BME280;3227;42.654;23.360;2023-02-20T03:05:20;94835.34;;;10.45;65.50
6389;BME280;3227;42.654;23.360;2023-02-20T03:07:53;94846.44;;;10.47;65.49
6389;BME280;3227;42.654;23.360;2023-02-20T03:10:23;94847.34;;;10.56;65.41
6389;BME280;3227;42.654;23.360;2023-02-20T03:12:58;94853.28;;;10.49;65.68
6389;BME280;3227;42.654;23.360;2023-02-20T03:15:30;94855.94;;;10.64;65.68
6389;BME280;3227;42.654;23.360;2023-02-20T03:18:04;94853.38;;;10.64;65.47
6389;BME280;3227;42.654;23.360;2023-02-20T03:20:37;94849.94;;;10.62;64.72
6389;BME280;3227;42.654;23.360;2023-02-20T03:23:09;94847.38;;;10.59;65.25
6389;BME280;3227;42.654;23.360;2023-02-20T03:25:39;94859.28;;;10.50;64.92
6389;BME280;3227;42.654;23.360;2023-02-20T03:28:10;94849.00;;;10.47;65.57
6389;BME280;3227;42.654;23.360;2023-02-20T03:30:42;94856.75;;;10.53;65.45
6389;BME280;3227;42.654;23.360;2023-02-20T03:33:13;94861.84;;;10.50;64.22
6389;BME280;3227;42.654;23.360;2023-02-20T03:36:01;94880.56;;;10.37;65.42
6389;BME280;3227;42.654;23.360;2023-02-20T03:38:53;94848.78;;;10.10;65.36
6389;BME280;3227;42.654;23.360;2023-02-20T03:41:41;94892.47;;;10.32;65.39
6389;BME280;3227;42.654;23.360;2023-02-20T03:44:27;94889.88;;;10.27;65.67
6389;BME280;3227;42.654;23.360;2023-02-20T03:46:57;94878.00;;;10.41;65.76
6389;BME280;3227;42.654;23.360;2023-02-20T03:49:30;94878.84;;;10.39;65.27
6389;BME280;3227;42.654;23.360;2023-02-20T03:51:58;94882.19;;;10.25;65.46
6389;BME280;3227;42.654;23.360;2023-02-20T03:54:27;94892.44;;;10.30;65.16
6389;BME280;3227;42.654;23.360;2023-02-20T03:56:58;94847.00;;;10.02;65.83
6389;BME280;3227;42.654;23.360;2023-02-20T03:59:29;94840.09;;;9.91;65.56
6389;BME280;3227;42.654;23.360;2023-02-20T04:02:02;94896.66;;;10.22;65.55
6389;BME280;3227;42.654;23.360;2023-02-20T04:04:33;94893.16;;;10.15;65.63
6389;BME280;3227;42.654;23.360;2023-02-20T04:07:07;94890.63;;;10.12;65.06
6389;BME280;3227;42.654;23.360;2023-02-20T04:09:40;94889.59;;;9.97;65.75
6389;BME280;3227;42.654;23.360;2023-02-20T04:12:13;94894.72;;;9.93;65.57
6389;BME280;3227;42.654;23.360;2023-02-20T04:14:43;94893.00;;;9.92;65.77
6389;BME280;3227;42.654;23.360;2023-02-20T04:17:13;94901.56;;;9.95;65.22
6389;BME280;3227;42.654;23.360;2023-02-20T04:19:41;94895.53;;;9.86;65.55
6389;BME280;3227;42.654;23.360;2023-02-20T04:22:11;94895.50;;;9.85;64.81
6389;BME280;3227;42.654;23.360;2023-02-20T04:24:45;94905.78;;;9.91;64.81
6389;BME280;3227;42.654;23.360;2023-02-20T04:27:13;94898.16;;;9.94;65.28
6389;BME280;3227;42.654;23.360;2023-02-20T04:29:40;94911.72;;;9.85;64.87
6389;BME280;3227;42.654;23.360;2023-02-20T04:32:07;94906.56;;;9.82;65.75
6389;BME280;3227;42.654;23.360;2023-02-20T04:34:34;94836.41;;;9.54;64.56
6389;BME280;3227;42.654;23.360;2023-02-20T04:37:06;94898.13;;;9.92;64.39
6389;BME280;3227;42.654;23.360;2023-02-20T04:39:33;94904.94;;;9.90;65.46
6389;BME280;3227;42.654;23.360;2023-02-20T04:42:01;94890.38;;;9.83;66.36
6389;BME280;3227;42.654;23.360;2023-02-20T04:44:28;94880.06;;;9.76;66.73
6389;BME280;3227;42.654;23.360;2023-02-20T04:46:59;94885.16;;;9.73;66.17
6389;BME280;3227;42.654;23.360;2023-02-20T04:49:27;94895.50;;;9.83;65.83
6389;BME280;3227;42.654;23.360;2023-02-20T04:51:54;94894.47;;;9.66;65.48
6389;BME280;3227;42.654;23.360;2023-02-20T04:54:21;94880.66;;;9.49;65.56
6389;BME280;3227;42.654;23.360;2023-02-20T04:56:48;94903.72;;;9.52;65.62
6389;BME280;3227;42.654;23.360;2023-02-20T04:59:17;94925.16;;;9.63;64.95
6389;BME280;3227;42.654;23.360;2023-02-20T05:01:44;94908.03;;;9.56;64.27
6389;BME280;3227;42.654;23.360;2023-02-20T05:04:13;94903.75;;;9.53;62.81
6389;BME280;3227;42.654;23.360;2023-02-20T05:06:42;94923.31;;;9.50;63.47
6389;BME280;3227;42.654;23.360;2023-02-20T05:09:09;94926.75;;;9.52;63.77
6389;BME280;3227;42.654;23.360;2023-02-20T05:11:36;94933.63;;;9.58;62.50
6389;BME280;3227;42.654;23.360;2023-02-20T05:14:04;94885.53;;;9.22;62.34
6389;BME280;3227;42.654;23.360;2023-02-20T05:16:32;94930.31;;;9.66;62.07
6389;BME280;3227;42.654;23.360;2023-02-20T05:18:59;94930.22;;;9.59;60.91
6389;BME280;3227;42.654;23.360;2023-02-20T05:21:26;94933.66;;;9.59;60.61
6389;BME280;3227;42.654;23.360;2023-02-20T05:24:10;94934.53;;;9.61;60.42
6389;BME280;3227;42.654;23.360;2023-02-20T05:26:37;94932.72;;;9.52;60.13
6389;BME280;3227;42.654;23.360;2023-02-20T05:29:04;94881.94;;;9.07;60.10
6389;BME280;3227;42.654;23.360;2023-02-20T05:31:35;94937.47;;;9.19;61.36
6389;BME280;3227;42.654;23.360;2023-02-20T05:34:02;94949.66;;;9.41;61.05
6389;BME280;3227;42.654;23.360;2023-02-20T05:36:29;94958.50;;;9.72;60.00
6389;BME280;3227;42.654;23.360;2023-02-20T05:38:56;94968.97;;;9.98;59.50
6389;BME280;3227;42.654;23.360;2023-02-20T05:41:23;94959.84;;;10.20;58.16
6389;BME280;3227;42.654;23.360;2023-02-20T05:43:49;94947.91;;;10.25;57.47
6389;BME280;3227;42.654;23.360;2023-02-20T05:46:19;94971.13;;;10.43;58.11
6389;BME280;3227;42.654;23.360;2023-02-20T05:48:49;94947.09;;;10.30;57.78
6389;BME280;3227;42.654;23.360;2023-02-20T05:51:20;94985.03;;;10.79;58.21
6389;BME280;3227;42.654;23.360;2023-02-20T05:53:47;94980.75;;;10.81;57.87
6389;BME280;3227;42.654;23.360;2023-02-20T05:56:14;94971.38;;;10.83;57.47
6389;BME280;3227;42.654;23.360;2023-02-20T05:58:41;94973.19;;;11.00;56.75
6389;BME280;3227;42.654;23.360;2023-02-20T06:01:15;94975.00;;;11.20;56.25
6389;BME280;3227;42.654;23.360;2023-02-20T06:03:42;94979.25;;;11.22;56.10
6389;BME280;3227;42.654;23.360;2023-02-20T06:06:10;94970.78;;;11.35;55.73
6389;BME280;3227;42.654;23.360;2023-02-20T06:08:38;94981.06;;;11.41;56.24
6389;BME280;3227;42.654;23.360;2023-02-20T06:11:05;94986.22;;;11.51;54.55
6389;BME280;3227;42.654;23.360;2023-02-20T06:13:35;94983.69;;;11.60;53.87
6389;BME280;3227;42.654;23.360;2023-02-20T06:16:02;94992.22;;;11.50;53.34
6389;BME280;3227;42.654;23.360;2023-02-20T06:18:29;94989.63;;;11.42;54.03
6389;BME280;3227;42.654;23.360;2023-02-20T06:20:55;94971.63;;;11.31;52.02
6389;BME280;3227;42.654;23.360;2023-02-20T06:23:24;94988.72;;;11.37;51.23
6389;BME280;3227;42.654;23.360;2023-02-20T06:25:51;94994.69;;;11.25;51.38
6389;BME280;3227;42.654;23.360;2023-02-20T06:28:18;94969.09;;;11.36;51.88
6389;BME280;3227;42.654;23.360;2023-02-20T06:30:46;95001.78;;;11.84;50.34
6389;BME280;3227;42.654;23.360;2023-02-20T06:33:13;95008.69;;;12.09;49.46
6389;BME280;3227;42.654;23.360;2023-02-20T06:35:39;95015.53;;;12.32;49.61
6389;BME280;3227;42.654;23.360;2023-02-20T06:38:11;95005.28;;;12.50;48.88
6389;BME280;3227;42.654;23.360;2023-02-20T06:40:39;95001.84;;;12.58;48.32
6389;BME280;3227;42.654;23.360;2023-02-20T06:43:06;95011.28;;;12.67;47.79
6389;BME280;3227;42.654;23.360;2023-02-20T06:45:33;95029.28;;;12.64;48.37
6389;BME280;3227;42.654;23.360;2023-02-20T06:48:01;95010.41;;;12.56;47.78
6389;BME280;3227;42.654;23.360;2023-02-20T06:50:28;95009.53;;;12.30;47.81
6389;BME280;3227;42.654;23.360;2023-02-20T06:52:55;95006.94;;;12.05;47.77
6389;BME280;3227;42.654;23.360;2023-02-20T06:55:21;95023.19;;;11.94;48.06
6389;BME280;3227;42.654;23.360;2023-02-20T06:57:50;95024.00;;;11.79;48.75
6389;BME280;3227;42.654;23.360;2023-02-20T07:00:17;94963.94;;;11.34;48.87
6389;BME280;3227;42.654;23.360;2023-02-20T07:02:44;95028.13;;;11.43;49.95
6389;BME280;3227;42.654;23.360;2023-02-20T07:05:11;95026.31;;;11.24;50.12
6389;BME280;3227;42.654;23.360;2023-02-20T07:07:38;95017.78;;;11.30;50.29
6389;BME280;3227;42.654;23.360;2023-02-20T07:10:06;94982.69;;;11.20;50.77
6389;BME280;3227;42.654;23.360;2023-02-20T07:12:33;95024.00;;;11.79;50.78
6389;BME280;3227;42.654;23.360;2023-02-20T07:15:04;95019.75;;;11.84;47.71
6389;BME280;3227;42.654;23.360;2023-02-20T07:17:31;95034.25;;;11.79;47.86
6389;BME280;3227;42.654;23.360;2023-02-20T07:19:58;95043.63;;;11.74;48.46
6389;BME280;3227;42.654;23.360;2023-02-20T07:22:25;95039.41;;;11.79;47.64
6389;BME280;3227;42.654;23.360;2023-02-20T07:24:52;95040.19;;;11.70;46.35
6389;BME280;3227;42.654;23.360;2023-02-20T07:27:19;95042.81;;;11.75;46.53
6389;BME280;3227;42.654;23.360;2023-02-20T07:29:48;95037.72;;;11.90;46.31
6389;BME280;3227;42.654;23.360;2023-02-20T07:32:16;95019.75;;;11.89;45.07
6389;BME280;3227;42.654;23.360;2023-02-20T07:34:45;95003.41;;;11.73;44.56
6389;BME280;3227;42.654;23.360;2023-02-20T07:37:12;95047.13;;;11.87;44.09
6389;BME280;3227;42.654;23.360;2023-02-20T07:39:39;95042.84;;;11.82;44.43
6389;BME280;3227;42.654;23.360;2023-02-20T07:42:06;95047.13;;;11.80;44.72
6389;BME280;3227;42.654;23.360;2023-02-20T07:44:33;95058.28;;;11.90;43.51
6389;BME280;3227;42.654;23.360;2023-02-20T07:47:00;95063.38;;;11.79;44.16
6389;BME280;3227;42.654;23.360;2023-02-20T07:49:28;95065.00;;;11.70;43.60
6389;BME280;3227;42.654;23.360;2023-02-20T07:51:55;95029.84;;;11.54;43.70
6389;BME280;3227;42.654;23.360;2023-02-20T07:54:22;95066.81;;;11.89;43.27
6389;BME280;3227;42.654;23.360;2023-02-20T07:56:49;95060.88;;;12.05;42.64
6389;BME280;3227;42.654;23.360;2023-02-20T07:59:15;95068.63;;;12.24;44.16
6389;BME280;3227;42.654;23.360;2023-02-20T08:01:43;95070.38;;;12.40;41.92
6389;BME280;3227;42.654;23.360;2023-02-20T08:04:10;95053.22;;;12.30;42.06
6389;BME280;3227;42.654;23.360;2023-02-20T08:06:38;95060.13;;;12.49;41.58
6389;BME280;3227;42.654;23.360;2023-02-20T08:09:05;95084.09;;;12.60;40.38
6389;BME280;3227;42.654;23.360;2023-02-20T08:11:33;95026.69;;;12.49;41.59
6389;BME280;3227;42.654;23.360;2023-02-20T08:14:00;95074.69;;;12.92;40.89
6389;BME280;3227;42.654;23.360;2023-02-20T08:16:27;95079.84;;;12.88;40.27
6389;BME280;3227;42.654;23.360;2023-02-20T08:18:54;95044.66;;;12.52;39.62
6389;BME280;3227;42.654;23.360;2023-02-20T08:21:21;95039.56;;;12.58;40.26
6389;BME280;3227;42.654;23.360;2023-02-20T08:23:49;95085.84;;;12.82;40.82
6389;BME280;3227;42.654;23.360;2023-02-20T08:26:16;95032.69;;;12.48;41.30
6389;BME280;3227;42.654;23.360;2023-02-20T08:28:45;95012.13;;;12.17;40.60
6389;BME280;3227;42.654;23.360;2023-02-20T08:31:12;95073.81;;;12.52;40.66
6389;BME280;3227;42.654;23.360;2023-02-20T08:33:39;95074.66;;;12.44;41.41
6389;BME280;3227;42.654;23.360;2023-02-20T08:36:06;95061.81;;;12.42;40.86
6389;BME280;3227;42.654;23.360;2023-02-20T08:38:35;95066.94;;;12.44;41.31
6389;BME280;3227;42.654;23.360;2023-02-20T08:41:05;95066.94;;;12.44;41.35
6389;BME280;3227;42.654;23.360;2023-02-20T08:43:32;95082.41;;;12.50;40.70
6389;BME280;3227;42.654;23.360;2023-02-20T08:45:59;95087.50;;;12.39;42.08
6389;BME280;3227;42.654;23.360;2023-02-20T08:48:26;95075.53;;;12.46;40.67
6389;BME280;3227;42.654;23.360;2023-02-20T08:50:53;95064.41;;;12.48;41.38
6389;BME280;3227;42.654;23.360;2023-02-20T08:53:20;95085.81;;;12.52;41.03
6389;BME280;3227;42.654;23.360;2023-02-20T08:55:47;95072.97;;;12.55;41.98
6389;BME280;3227;42.654;23.360;2023-02-20T08:58:18;95079.00;;;12.84;40.85
6389;BME280;3227;42.654;23.360;2023-02-20T09:00:45;95061.84;;;12.83;40.42
6389;BME280;3227;42.654;23.360;2023-02-20T09:03:12;95081.56;;;13.01;40.11
6389;BME280;3227;42.654;23.360;2023-02-20T09:05:39;95063.56;;;13.00;39.48
6389;BME280;3227;42.654;23.360;2023-02-20T09:08:06;95078.97;;;12.80;38.92
6389;BME280;3227;42.654;23.360;2023-02-20T09:10:33;95024.13;;;12.43;40.36
6389;BME280;3227;42.654;23.360;2023-02-20T09:12:59;95060.97;;;12.78;39.96
6389;BME280;3227;42.654;23.360;2023-02-20T09:15:28;95056.69;;;12.89;39.57
6389;BME280;3227;42.654;23.360;2023-02-20T09:17:56;95034.41;;;12.82;39.23
6389;BME280;3227;42.654;23.360;2023-02-20T09:20:23;95038.69;;;12.80;39.05
6389;BME280;3227;42.654;23.360;2023-02-20T09:22:50;95036.13;;;12.65;39.58
6389;BME280;3227;42.654;23.360;2023-02-20T09:25:17;95027.56;;;12.57;39.89
6389;BME280;3227;42.654;23.360;2023-02-20T09:27:44;95061.81;;;12.62;40.59
6389;BME280;3227;42.654;23.360;2023-02-20T09:30:15;95056.69;;;12.73;39.54
6389;BME280;3227;42.654;23.360;2023-02-20T09:32:45;95045.53;;;12.69;40.70
6389;BME280;3227;42.654;23.360;2023-02-20T09:35:15;94973.56;;;12.13;40.22
6389;BME280;3227;42.654;23.360;2023-02-20T09:37:42;95056.69;;;12.65;40.30
6389;BME280;3227;42.654;23.360;2023-02-20T09:40:10;95054.13;;;12.80;39.95
6389;BME280;3227;42.654;23.360;2023-02-20T09:42:44;95041.25;;;12.79;40.91
6389;BME280;3227;42.654;23.360;2023-02-20T09:45:18;95066.97;;;12.97;40.67
6389;BME280;3227;42.654;23.360;2023-02-20T09:48:04;95050.69;;;13.16;39.85
6389;BME280;3227;42.654;23.360;2023-02-20T09:50:37;95058.34;;;13.39;39.63
6389;BME280;3227;42.654;23.360;2023-02-20T09:53:14;95064.38;;;13.37;39.16
6389;BME280;3227;42.654;23.360;2023-02-20T09:55:42;95048.09;;;13.09;39.46
6389;BME280;3227;42.654;23.360;2023-02-20T09:58:17;95072.13;;;12.99;40.69
6389;BME280;3227;42.654;23.360;2023-02-20T10:00:46;95072.13;;;12.91;39.44
6389;BME280;3227;42.654;23.360;2023-02-20T10:03:21;95071.28;;;12.81;40.00
6389;BME280;3227;42.654;23.360;2023-02-20T10:05:50;95063.53;;;12.69;39.34
6389;BME280;3227;42.654;23.360;2023-02-20T10:08:19;95083.28;;;12.60;39.46
6389;BME280;3227;42.654;23.360;2023-02-20T10:10:48;95067.84;;;12.72;40.13
6389;BME280;3227;42.654;23.360;2023-02-20T10:13:30;95054.09;;;12.97;40.82
6389;BME280;3227;42.654;23.360;2023-02-20T10:16:03;95060.97;;;13.09;38.59
6389;BME280;3227;42.654;23.360;2023-02-20T10:18:42;95051.56;;;12.92;39.15
6389;BME280;3227;42.654;23.360;2023-02-20T10:21:16;95052.38;;;13.10;38.04
6389;BME280;3227;42.654;23.360;2023-02-20T10:23:50;95045.53;;;13.00;37.17
6389;BME280;3227;42.654;23.360;2023-02-20T10:26:19;95019.84;;;12.83;37.20
6389;BME280;3227;42.654;23.360;2023-02-20T10:28:49;95034.38;;;13.04;36.74
6389;BME280;3227;42.654;23.360;2023-02-20T10:31:27;95024.06;;;13.10;37.65
6389;BME280;3227;42.654;23.360;2023-02-20T10:34:04;95015.53;;;13.00;37.14
6389;BME280;3227;42.654;23.360;2023-02-20T10:36:37;95024.06;;;13.10;38.23
6389;BME280;3227;42.654;23.360;2023-02-20T10:39:12;95039.50;;;13.13;36.54
6389;BME280;3227;42.654;23.360;2023-02-20T10:41:42;94989.00;;;12.75;35.87
6389;BME280;3227;42.654;23.360;2023-02-20T10:44:18;95033.53;;;13.06;36.05
6389;BME280;3227;42.654;23.360;2023-02-20T10:46:54;95031.81;;;13.19;36.25
6389;BME280;3227;42.654;23.360;2023-02-20T10:49:31;95037.78;;;13.27;35.96
6389;BME280;3227;42.654;23.360;2023-02-20T10:52:00;95032.66;;;13.33;35.75
6389;BME280;3227;42.654;23.360;2023-02-20T10:54:34;95018.88;;;13.37;36.21
6389;BME280;3227;42.654;23.360;2023-02-20T10:57:06;95020.59;;;13.40;35.71
6389;BME280;3227;42.654;23.360;2023-02-20T10:59:40;95003.41;;;13.43;35.50
6389;BME280;3227;42.654;23.360;2023-02-20T11:02:15;95001.69;;;13.48;35.27
6389;BME280;3227;42.654;23.360;2023-02-20T11:04:49;94995.66;;;13.51;35.67
6389;BME280;3227;42.654;23.360;2023-02-20T11:07:18;94800.53;;;12.41;35.42
6389;BME280;3227;42.654;23.360;2023-02-20T11:09:46;94992.19;;;13.61;35.34
6389;BME280;3227;42.654;23.360;2023-02-20T11:12:22;94921.16;;;13.23;35.80
6389;BME280;3227;42.654;23.360;2023-02-20T11:14:52;94975.06;;;13.57;34.17
6389;BME280;3227;42.654;23.360;2023-02-20T11:17:23;94990.59;;;13.40;35.29
6389;BME280;3227;42.654;23.360;2023-02-20T11:19:53;94996.53;;;13.54;34.56
6389;BME280;3227;42.654;23.360;2023-02-20T11:22:39;94965.63;;;13.56;35.26
6389;BME280;3227;42.654;23.360;2023-02-20T11:25:16;94997.22;;;13.87;34.82
6389;BME280;3227;42.654;23.360;2023-02-20T11:27:44;94980.91;;;13.91;34.63
6389;BME280;3227;42.654;23.360;2023-02-20T11:30:28;94958.63;;;13.81;35.22
6389;BME280;3227;42.654;23.360;2023-02-20T11:33:00;94987.75;;;13.92;34.37
6389;BME280;3227;42.654;23.360;2023-02-20T11:35:34;95000.66;;;13.84;35.15
6389;BME280;3227;42.654;23.360;2023-02-20T11:38:30;94985.19;;;13.90;35.59
6389;BME280;3227;42.654;23.360;2023-02-20T11:41:28;95005.72;;;14.07;36.23
6389;BME280;3227;42.654;23.360;2023-02-20T11:49:49;94991.88;;;14.22;35.93
6389;BME280;3227;42.654;23.360;2023-02-20T11:52:35;94974.63;;;14.25;35.89
6389;BME280;3227;42.654;23.360;2023-02-20T11:55:16;94992.78;;;14.16;35.76
6389;BME280;3227;42.654;23.360;2023-02-20T11:57:45;94979.78;;;14.27;36.66
6389;BME280;3227;42.654;23.360;2023-02-20T12:00:14;94974.63;;;14.28;35.55
6389;BME280;3227;42.654;23.360;2023-02-20T12:02:53;94964.31;;;14.28;36.30
6389;BME280;3227;42.654;23.360;2023-02-20T12:05:21;94920.91;;;13.72;35.49
6389;BME280;3227;42.654;23.360;2023-02-20T12:07:58;94979.97;;;14.02;37.17
6389;BME280;3227;42.654;23.360;2023-02-20T12:10:38;94974.84;;;13.95;35.88
6389;BME280;3227;42.654;23.360;2023-02-20T12:13:11;94968.84;;;13.97;35.95
6389;BME280;3227;42.654;23.360;2023-02-20T12:15:39;94980.75;;;14.10;36.59
6389;BME280;3227;42.654;23.360;2023-02-20T12:18:16;94979.84;;;14.24;35.36
6389;BME280;3227;42.654;23.360;2023-02-20T12:20:48;94975.50;;;14.27;34.71
6389;BME280;3227;42.654;23.360;2023-02-20T12:23:26;94984.03;;;14.34;34.49
6389;BME280;3227;42.654;23.360;2023-02-20T12:26:12;94983.19;;;14.33;34.13
6389;BME280;3227;42.654;23.360;2023-02-20T12:28:49;94991.81;;;14.28;35.49
6389;BME280;3227;42.654;23.360;2023-02-20T12:31:32;94972.97;;;14.20;34.84
6389;BME280;3227;42.654;23.360;2023-02-20T12:34:13;94995.22;;;14.40;34.82
6389;BME280;3227;42.654;23.360;2023-02-20T12:36:48;94993.50;;;14.33;34.44
6389;BME280;3227;42.654;23.360;2023-02-20T12:39:24;94989.22;;;14.29;35.32
6389;BME280;3227;42.654;23.360;2023-02-20T12:42:02;94981.56;;;14.23;35.10
6389;BME280;3227;42.654;23.360;2023-02-20T12:44:51;94979.78;;;14.27;35.54
6389;BME280;3227;42.654;23.360;2023-02-20T12:47:26;94950.69;;;14.13;34.95
6389;BME280;3227;42.654;23.360;2023-02-20T12:50:11;94973.94;;;14.05;35.48
6389;BME280;3227;42.654;23.360;2023-02-20T12:52:56;94988.53;;;14.04;34.83
6389;BME280;3227;42.654;23.360;2023-02-20T12:55:32;94958.59;;;13.90;36.09
6389;BME280;3227;42.654;23.360;2023-02-20T12:58:13;94983.34;;;14.09;35.61
6389;BME280;3227;42.654;23.360;2023-02-20T13:00:45;94993.59;;;14.20;36.08
6389;BME280;3227;42.654;23.360;2023-02-20T13:03:15;94981.56;;;14.17;35.29
6389;BME280;3227;42.654;23.360;2023-02-20T13:05:47;94978.97;;;14.20;35.98
6389;BME280;3227;42.654;23.360;2023-02-20T13:08:17;95003.03;;;14.22;35.68
6389;BME280;3227;42.654;23.360;2023-02-20T13:10:54;94994.44;;;14.20;35.10
6389;BME280;3227;42.654;23.360;2023-02-20T13:13:22;94999.53;;;14.29;35.06
6389;BME280;3227;42.654;23.360;2023-02-20T13:15:55;94991.75;;;14.35;35.34
6389;BME280;3227;42.654;23.360;2023-02-20T13:18:31;94990.00;;;14.45;35.18
6389;BME280;3227;42.654;23.360;2023-02-20T13:21:02;94972.06;;;14.25;34.19
6389;BME280;3227;42.654;23.360;2023-02-20T13:23:32;94934.53;;;13.89;35.03
6389;BME280;3227;42.654;23.360;2023-02-20T13:26:00;94942.22;;;13.97;34.99
6389;BME280;3227;42.654;23.360;2023-02-20T13:28:39;94977.28;;;14.19;35.50
6389;BME280;3227;42.654;23.360;2023-02-20T13:31:15;94975.59;;;14.12;35.67
6389;BME280;3227;42.654;23.360;2023-02-20T13:33:44;94985.91;;;14.12;34.74
6389;BME280;3227;42.654;23.360;2023-02-20T13:36:37;94994.44;;;14.23;35.50
6389;BME280;3227;42.654;23.360;2023-02-20T13:42:33;94998.03;;;13.95;35.22